sensor_id;sensor_type;location;lat;lon;timestamp;P1;durP1;ratioP1;P2;durP2;ratioP2
50225;SDS011;36113;50.742;6.432;2023-07-02T00:02:21;8.68;;;5.05;;
50225;SDS011;36113;50.742;6.432;2023-07-02T00:04:47;8.53;;;4.60;;
50225;SDS011;36113;50.742;6.432;2023-07-02T00:07:12;9.60;;;5.43;;
50225;SDS011;36113;50.742;6.432;2023-07-02T00:12:05;9.52;;;6.22;;
50225;SDS011;36113;50.742;6.432;2023-07-02T00:14:30;13.03;;;6.73;;
50225;SDS011;36113;50.742;6.432;2023-07-02T00:16:56;13.63;;;6.90;;
50225;SDS011;36113;50.742;6.432;2023-07-02T00:19:21;11.37;;;6.10;;
50225;SDS011;36113;50.742;6.432;2023-07-02T00:21:47;13.83;;;6.93;;
50225;SDS011;36113;50.742;6.432;2023-07-02T00:24:13;12.70;;;6.83;;
50225;SDS011;36113;50.742;6.432;2023-07-02T00:26:40;12.52;;;6.88;;
50225;SDS011;36113;50.742;6.432;2023-07-02T00:29:06;11.45;;;6.65;;
50225;SDS011;36113;50.742;6.432;2023-07-02T00:31:32;13.20;;;7.28;;
50225;SDS011;36113;50.742;6.432;2023-07-02T00:33:58;12.93;;;6.73;;
50225;SDS011;36113;50.742;6.432;2023-07-02T00:36:26;14.10;;;7.50;;
50225;SDS011;36113;50.742;6.432;2023-07-02T00:38:51;12.68;;;6.80;;
50225;SDS011;36113;50.742;6.432;2023-07-02T00:41:17;14.82;;;8.30;;
50225;SDS011;36113;50.742;6.432;2023-07-02T00:43:42;9.47;;;6.43;;
50225;SDS011;36113;50.742;6.432;2023-07-02T00:46:17;12.68;;;8.30;;
50225;SDS011;36113;50.742;6.432;2023-07-02T00:48:47;16.17;;;8.57;;
50225;SDS011;36113;50.742;6.432;2023-07-02T00:51:18;19.98;;;8.57;;
50225;SDS011;36113;50.742;6.432;2023-07-02T00:53:45;19.45;;;9.35;;
50225;SDS011;36113;50.742;6.432;2023-07-02T00:56:12;15.25;;;8.70;;
50225;SDS011;36113;50.742;6.432;2023-07-02T00:58:38;20.00;;;9.47;;
50225;SDS011;36113;50.742;6.432;2023-07-02T01:01:05;14.88;;;8.70;;
50225;SDS011;36113;50.742;6.432;2023-07-02T01:03:30;15.93;;;9.43;;
50225;SDS011;36113;50.742;6.432;2023-07-02T01:05:57;18.00;;;9.95;;
50225;SDS011;36113;50.742;6.432;2023-07-02T01:08:28;19.60;;;9.68;;
50225;SDS011;36113;50.742;6.432;2023-07-02T01:10:53;16.10;;;10.38;;
50225;SDS011;36113;50.742;6.432;2023-07-02T01:13:19;17.92;;;10.05;;
50225;SDS011;36113;50.742;6.432;2023-07-02T01:15:46;26.90;;;11.02;;
50225;SDS011;36113;50.742;6.432;2023-07-02T01:18:13;16.25;;;9.43;;
50225;SDS011;36113;50.742;6.432;2023-07-02T01:20:39;19.02;;;9.13;;
50225;SDS011;36113;50.742;6.432;2023-07-02T01:23:05;15.15;;;9.50;;
50225;SDS011;36113;50.742;6.432;2023-07-02T01:25:31;17.73;;;10.10;;
50225;SDS011;36113;50.742;6.432;2023-07-02T01:27:56;18.30;;;10.10;;
50225;SDS011;36113;50.742;6.432;2023-07-02T01:30:23;22.17;;;11.15;;
50225;SDS011;36113;50.742;6.432;2023-07-02T01:32:49;28.00;;;10.07;;
50225;SDS011;36113;50.742;6.432;2023-07-02T01:35:14;21.92;;;9.73;;
50225;SDS011;36113;50.742;6.432;2023-07-02T01:37:41;17.90;;;10.23;;
50225;SDS011;36113;50.742;6.432;2023-07-02T01:40:06;18.60;;;10.73;;
50225;SDS011;36113;50.742;6.432;2023-07-02T01:42:33;17.10;;;9.93;;
50225;SDS011;36113;50.742;6.432;2023-07-02T01:44:59;16.70;;;10.82;;
50225;SDS011;36113;50.742;6.432;2023-07-02T01:47:24;16.60;;;10.07;;
50225;SDS011;36113;50.742;6.432;2023-07-02T01:49:50;22.35;;;10.73;;
50225;SDS011;36113;50.742;6.432;2023-07-02T01:52:16;19.77;;;10.57;;
50225;SDS011;36113;50.742;6.432;2023-07-02T01:54:42;25.98;;;9.95;;
50225;SDS011;36113;50.742;6.432;2023-07-02T01:57:08;23.63;;;10.63;;
50225;SDS011;36113;50.742;6.432;2023-07-02T01:59:33;26.63;;;10.13;;
50225;SDS011;36113;50.742;6.432;2023-07-02T02:01:59;19.40;;;10.73;;
50225;SDS011;36113;50.742;6.432;2023-07-02T02:04:24;24.90;;;11.25;;
50225;SDS011;36113;50.742;6.432;2023-07-02T02:06:50;19.33;;;10.55;;
50225;SDS011;36113;50.742;6.432;2023-07-02T02:09:17;25.80;;;11.55;;
50225;SDS011;36113;50.742;6.432;2023-07-02T02:11:43;19.40;;;10.52;;
50225;SDS011;36113;50.742;6.432;2023-07-02T02:14:15;22.92;;;10.32;;
50225;SDS011;36113;50.742;6.432;2023-07-02T02:16:41;24.17;;;11.37;;
50225;SDS011;36113;50.742;6.432;2023-07-02T02:19:10;25.88;;;11.73;;
50225;SDS011;36113;50.742;6.432;2023-07-02T02:21:36;20.90;;;11.50;;
50225;SDS011;36113;50.742;6.432;2023-07-02T02:24:01;20.55;;;11.93;;
50225;SDS011;36113;50.742;6.432;2023-07-02T02:26:26;28.27;;;11.93;;
50225;SDS011;36113;50.742;6.432;2023-07-02T02:28:52;29.38;;;13.98;;
50225;SDS011;36113;50.742;6.432;2023-07-02T02:31:17;18.35;;;11.52;;
50225;SDS011;36113;50.742;6.432;2023-07-02T02:33:42;21.30;;;11.47;;
50225;SDS011;36113;50.742;6.432;2023-07-02T02:36:08;21.27;;;11.97;;
50225;SDS011;36113;50.742;6.432;2023-07-02T02:38:33;26.03;;;12.60;;
50225;SDS011;36113;50.742;6.432;2023-07-02T02:40:59;26.85;;;12.63;;
50225;SDS011;36113;50.742;6.432;2023-07-02T02:43:25;24.25;;;12.57;;
50225;SDS011;36113;50.742;6.432;2023-07-02T02:45:51;20.33;;;12.00;;
50225;SDS011;36113;50.742;6.432;2023-07-02T02:48:16;23.80;;;11.63;;
50225;SDS011;36113;50.742;6.432;2023-07-02T02:50:41;25.90;;;12.27;;
50225;SDS011;36113;50.742;6.432;2023-07-02T02:53:08;20.52;;;12.27;;
50225;SDS011;36113;50.742;6.432;2023-07-02T02:55:33;26.97;;;12.20;;
50225;SDS011;36113;50.742;6.432;2023-07-02T02:57:59;21.17;;;12.45;;
50225;SDS011;36113;50.742;6.432;2023-07-02T03:00:24;23.17;;;13.77;;
50225;SDS011;36113;50.742;6.432;2023-07-02T03:02:50;26.30;;;13.15;;
50225;SDS011;36113;50.742;6.432;2023-07-02T03:05:15;23.63;;;13.30;;
50225;SDS011;36113;50.742;6.432;2023-07-02T03:07:41;21.57;;;12.33;;
50225;SDS011;36113;50.742;6.432;2023-07-02T03:10:07;34.10;;;13.75;;
50225;SDS011;36113;50.742;6.432;2023-07-02T03:12:32;21.47;;;13.67;;
50225;SDS011;36113;50.742;6.432;2023-07-02T03:14:58;33.05;;;14.13;;
50225;SDS011;36113;50.742;6.432;2023-07-02T03:17:23;25.53;;;14.87;;
50225;SDS011;36113;50.742;6.432;2023-07-02T03:19:48;23.88;;;14.88;;
50225;SDS011;36113;50.742;6.432;2023-07-02T03:22:14;24.25;;;13.88;;
50225;SDS011;36113;50.742;6.432;2023-07-02T03:24:39;29.73;;;15.30;;
50225;SDS011;36113;50.742;6.432;2023-07-02T03:27:05;26.00;;;14.95;;
50225;SDS011;36113;50.742;6.432;2023-07-02T03:29:31;31.43;;;14.77;;
50225;SDS011;36113;50.742;6.432;2023-07-02T03:31:56;28.23;;;15.35;;
50225;SDS011;36113;50.742;6.432;2023-07-02T03:34:22;30.20;;;15.47;;
50225;SDS011;36113;50.742;6.432;2023-07-02T03:36:48;37.45;;;15.43;;
50225;SDS011;36113;50.742;6.432;2023-07-02T03:39:14;23.53;;;15.07;;
50225;SDS011;36113;50.742;6.432;2023-07-02T03:41:40;30.67;;;16.07;;
50225;SDS011;36113;50.742;6.432;2023-07-02T03:44:05;33.10;;;15.73;;
50225;SDS011;36113;50.742;6.432;2023-07-02T03:46:31;34.43;;;16.23;;
50225;SDS011;36113;50.742;6.432;2023-07-02T03:48:57;26.40;;;15.63;;
50225;SDS011;36113;50.742;6.432;2023-07-02T03:51:22;32.55;;;16.10;;
50225;SDS011;36113;50.742;6.432;2023-07-02T03:53:47;34.97;;;17.27;;
50225;SDS011;36113;50.742;6.432;2023-07-02T03:56:13;41.08;;;16.33;;
50225;SDS011;36113;50.742;6.432;2023-07-02T03:58:39;29.23;;;15.50;;
50225;SDS011;36113;50.742;6.432;2023-07-02T04:01:05;27.90;;;16.13;;
50225;SDS011;36113;50.742;6.432;2023-07-02T04:03:30;27.23;;;15.70;;
50225;SDS011;36113;50.742;6.432;2023-07-02T04:05:55;32.35;;;17.55;;
50225;SDS011;36113;50.742;6.432;2023-07-02T04:08:21;36.30;;;17.33;;
50225;SDS011;36113;50.742;6.432;2023-07-02T04:10:47;29.17;;;17.13;;
50225;SDS011;36113;50.742;6.432;2023-07-02T04:13:12;35.23;;;16.70;;
50225;SDS011;36113;50.742;6.432;2023-07-02T04:15:38;34.60;;;17.80;;
50225;SDS011;36113;50.742;6.432;2023-07-02T04:18:03;35.13;;;17.30;;
50225;SDS011;36113;50.742;6.432;2023-07-02T04:20:29;44.00;;;18.67;;
50225;SDS011;36113;50.742;6.432;2023-07-02T04:22:54;37.97;;;17.75;;
50225;SDS011;36113;50.742;6.432;2023-07-02T04:25:20;32.47;;;17.03;;
50225;SDS011;36113;50.742;6.432;2023-07-02T04:27:45;35.87;;;17.37;;
50225;SDS011;36113;50.742;6.432;2023-07-02T04:30:11;34.55;;;17.15;;
50225;SDS011;36113;50.742;6.432;2023-07-02T04:32:37;31.98;;;18.10;;
50225;SDS011;36113;50.742;6.432;2023-07-02T04:35:04;40.88;;;17.80;;
50225;SDS011;36113;50.742;6.432;2023-07-02T04:37:31;37.60;;;18.45;;
50225;SDS011;36113;50.742;6.432;2023-07-02T04:39:56;35.75;;;18.08;;
50225;SDS011;36113;50.742;6.432;2023-07-02T04:42:21;43.33;;;19.20;;
50225;SDS011;36113;50.742;6.432;2023-07-02T04:44:47;35.27;;;18.80;;
50225;SDS011;36113;50.742;6.432;2023-07-02T04:47:12;37.63;;;18.10;;
50225;SDS011;36113;50.742;6.432;2023-07-02T04:49:38;44.03;;;18.97;;
50225;SDS011;36113;50.742;6.432;2023-07-02T04:52:04;41.43;;;19.27;;
50225;SDS011;36113;50.742;6.432;2023-07-02T04:54:29;44.20;;;18.33;;
50225;SDS011;36113;50.742;6.432;2023-07-02T04:56:54;35.93;;;18.17;;
50225;SDS011;36113;50.742;6.432;2023-07-02T04:59:20;32.60;;;18.97;;
50225;SDS011;36113;50.742;6.432;2023-07-02T05:01:46;42.45;;;19.08;;
50225;SDS011;36113;50.742;6.432;2023-07-02T05:04:12;48.80;;;20.40;;
50225;SDS011;36113;50.742;6.432;2023-07-02T05:06:37;44.83;;;20.03;;
50225;SDS011;36113;50.742;6.432;2023-07-02T05:09:02;43.37;;;19.90;;
50225;SDS011;36113;50.742;6.432;2023-07-02T05:11:28;41.97;;;18.97;;
50225;SDS011;36113;50.742;6.432;2023-07-02T05:13:53;37.70;;;21.00;;
50225;SDS011;36113;50.742;6.432;2023-07-02T05:16:18;39.73;;;19.53;;
50225;SDS011;36113;50.742;6.432;2023-07-02T05:18:44;38.17;;;19.97;;
50225;SDS011;36113;50.742;6.432;2023-07-02T05:21:09;33.55;;;19.10;;
50225;SDS011;36113;50.742;6.432;2023-07-02T05:23:34;42.38;;;19.55;;
50225;SDS011;36113;50.742;6.432;2023-07-02T05:26:00;43.03;;;18.73;;
50225;SDS011;36113;50.742;6.432;2023-07-02T05:28:26;44.65;;;19.10;;
50225;SDS011;36113;50.742;6.432;2023-07-02T05:30:51;37.85;;;20.00;;
50225;SDS011;36113;50.742;6.432;2023-07-02T05:33:17;36.90;;;18.80;;
50225;SDS011;36113;50.742;6.432;2023-07-02T05:35:42;36.23;;;20.20;;
50225;SDS011;36113;50.742;6.432;2023-07-02T05:38:11;37.90;;;18.30;;
50225;SDS011;36113;50.742;6.432;2023-07-02T05:40:36;39.30;;;19.52;;
50225;SDS011;36113;50.742;6.432;2023-07-02T05:43:02;47.47;;;21.17;;
50225;SDS011;36113;50.742;6.432;2023-07-02T05:45:27;40.22;;;20.00;;
50225;SDS011;36113;50.742;6.432;2023-07-02T05:47:53;37.50;;;20.02;;
50225;SDS011;36113;50.742;6.432;2023-07-02T05:50:19;41.47;;;19.93;;
50225;SDS011;36113;50.742;6.432;2023-07-02T05:52:44;34.37;;;18.97;;
50225;SDS011;36113;50.742;6.432;2023-07-02T05:55:09;43.63;;;20.47;;
50225;SDS011;36113;50.742;6.432;2023-07-02T05:57:36;38.77;;;19.67;;
50225;SDS011;36113;50.742;6.432;2023-07-02T06:00:02;41.58;;;18.98;;
50225;SDS011;36113;50.742;6.432;2023-07-02T06:02:29;39.45;;;19.90;;
50225;SDS011;36113;50.742;6.432;2023-07-02T06:04:54;33.87;;;18.07;;
50225;SDS011;36113;50.742;6.432;2023-07-02T06:07:19;40.03;;;20.67;;
50225;SDS011;36113;50.742;6.432;2023-07-02T06:09:45;36.13;;;19.13;;
50225;SDS011;36113;50.742;6.432;2023-07-02T06:12:10;38.53;;;19.53;;
50225;SDS011;36113;50.742;6.432;2023-07-02T06:14:36;33.87;;;19.17;;
50225;SDS011;36113;50.742;6.432;2023-07-02T06:17:01;34.57;;;18.27;;
50225;SDS011;36113;50.742;6.432;2023-07-02T06:19:30;36.83;;;19.90;;
50225;SDS011;36113;50.742;6.432;2023-07-02T06:21:55;38.37;;;18.63;;
50225;SDS011;36113;50.742;6.432;2023-07-02T06:24:21;34.17;;;18.80;;
50225;SDS011;36113;50.742;6.432;2023-07-02T06:26:46;36.40;;;18.97;;
50225;SDS011;36113;50.742;6.432;2023-07-02T06:29:11;38.63;;;19.30;;
50225;SDS011;36113;50.742;6.432;2023-07-02T06:31:37;43.17;;;18.83;;
50225;SDS011;36113;50.742;6.432;2023-07-02T06:34:02;32.50;;;17.77;;
50225;SDS011;36113;50.742;6.432;2023-07-02T06:36:27;32.97;;;17.60;;
50225;SDS011;36113;50.742;6.432;2023-07-02T06:38:53;35.27;;;17.37;;
50225;SDS011;36113;50.742;6.432;2023-07-02T06:41:18;35.87;;;18.53;;
50225;SDS011;36113;50.742;6.432;2023-07-02T06:43:43;37.47;;;18.13;;
50225;SDS011;36113;50.742;6.432;2023-07-02T06:46:09;31.33;;;16.97;;
50225;SDS011;36113;50.742;6.432;2023-07-02T06:51:01;30.40;;;16.73;;
50225;SDS011;36113;50.742;6.432;2023-07-02T06:53:26;29.87;;;16.13;;
50225;SDS011;36113;50.742;6.432;2023-07-02T06:55:51;30.07;;;17.30;;
50225;SDS011;36113;50.742;6.432;2023-07-02T06:58:16;31.10;;;17.27;;
50225;SDS011;36113;50.742;6.432;2023-07-02T07:00:42;35.33;;;17.57;;
50225;SDS011;36113;50.742;6.432;2023-07-02T07:03:07;37.43;;;17.97;;
50225;SDS011;36113;50.742;6.432;2023-07-02T07:05:32;26.27;;;17.20;;
50225;SDS011;36113;50.742;6.432;2023-07-02T07:07:59;31.20;;;16.67;;
50225;SDS011;36113;50.742;6.432;2023-07-02T07:10:25;30.50;;;16.60;;
50225;SDS011;36113;50.742;6.432;2023-07-02T07:12:51;31.00;;;16.30;;
50225;SDS011;36113;50.742;6.432;2023-07-02T07:15:16;34.77;;;16.97;;
50225;SDS011;36113;50.742;6.432;2023-07-02T07:17:41;29.73;;;16.97;;
50225;SDS011;36113;50.742;6.432;2023-07-02T07:20:07;27.67;;;16.90;;
50225;SDS011;36113;50.742;6.432;2023-07-02T07:22:33;32.00;;;17.20;;
50225;SDS011;36113;50.742;6.432;2023-07-02T07:24:58;30.23;;;15.97;;
50225;SDS011;36113;50.742;6.432;2023-07-02T07:27:24;32.13;;;17.20;;
50225;SDS011;36113;50.742;6.432;2023-07-02T07:29:49;29.37;;;16.97;;
50225;SDS011;36113;50.742;6.432;2023-07-02T07:32:14;30.13;;;16.13;;
50225;SDS011;36113;50.742;6.432;2023-07-02T07:34:39;32.80;;;17.47;;
50225;SDS011;36113;50.742;6.432;2023-07-02T07:37:05;29.40;;;16.53;;
50225;SDS011;36113;50.742;6.432;2023-07-02T07:39:30;28.40;;;16.30;;
50225;SDS011;36113;50.742;6.432;2023-07-02T07:41:56;24.77;;;15.30;;
50225;SDS011;36113;50.742;6.432;2023-07-02T07:44:21;32.37;;;16.17;;
50225;SDS011;36113;50.742;6.432;2023-07-02T07:46:46;31.70;;;16.87;;
50225;SDS011;36113;50.742;6.432;2023-07-02T07:49:12;31.60;;;15.90;;
50225;SDS011;36113;50.742;6.432;2023-07-02T07:51:38;27.20;;;15.45;;
50225;SDS011;36113;50.742;6.432;2023-07-02T07:54:04;33.97;;;16.07;;
50225;SDS011;36113;50.742;6.432;2023-07-02T07:56:29;28.90;;;14.60;;
50225;SDS011;36113;50.742;6.432;2023-07-02T07:58:55;22.97;;;15.00;;
50225;SDS011;36113;50.742;6.432;2023-07-02T08:01:20;28.67;;;16.37;;
50225;SDS011;36113;50.742;6.432;2023-07-02T08:03:45;28.00;;;15.93;;
50225;SDS011;36113;50.742;6.432;2023-07-02T08:06:11;33.43;;;15.37;;
50225;SDS011;36113;50.742;6.432;2023-07-02T08:08:36;29.37;;;15.60;;
50225;SDS011;36113;50.742;6.432;2023-07-02T08:11:01;30.20;;;15.37;;
50225;SDS011;36113;50.742;6.432;2023-07-02T08:13:27;24.47;;;14.73;;
50225;SDS011;36113;50.742;6.432;2023-07-02T08:15:52;31.57;;;14.13;;
50225;SDS011;36113;50.742;6.432;2023-07-02T08:18:17;24.40;;;14.53;;
50225;SDS011;36113;50.742;6.432;2023-07-02T08:20:43;30.07;;;13.53;;
50225;SDS011;36113;50.742;6.432;2023-07-02T08:23:08;29.03;;;14.73;;
50225;SDS011;36113;50.742;6.432;2023-07-02T08:25:33;32.00;;;15.10;;
50225;SDS011;36113;50.742;6.432;2023-07-02T08:27:59;28.23;;;13.37;;
50225;SDS011;36113;50.742;6.432;2023-07-02T08:30:24;29.17;;;13.50;;
50225;SDS011;36113;50.742;6.432;2023-07-02T08:32:49;29.93;;;14.87;;
50225;SDS011;36113;50.742;6.432;2023-07-02T08:35:15;26.60;;;13.63;;
50225;SDS011;36113;50.742;6.432;2023-07-02T08:37:40;27.43;;;14.13;;
50225;SDS011;36113;50.742;6.432;2023-07-02T08:40:05;29.80;;;14.57;;
50225;SDS011;36113;50.742;6.432;2023-07-02T08:42:40;27.00;;;13.40;;
50225;SDS011;36113;50.742;6.432;2023-07-02T08:45:05;26.47;;;13.33;;
50225;SDS011;36113;50.742;6.432;2023-07-02T08:47:31;28.48;;;13.23;;
50225;SDS011;36113;50.742;6.432;2023-07-02T08:49:57;24.23;;;13.73;;
50225;SDS011;36113;50.742;6.432;2023-07-02T08:52:22;27.70;;;14.53;;
50225;SDS011;36113;50.742;6.432;2023-07-02T08:54:47;28.73;;;12.90;;
50225;SDS011;36113;50.742;6.432;2023-07-02T08:57:12;23.90;;;14.73;;
50225;SDS011;36113;50.742;6.432;2023-07-02T08:59:38;28.43;;;14.00;;
50225;SDS011;36113;50.742;6.432;2023-07-02T09:02:03;23.23;;;13.10;;
50225;SDS011;36113;50.742;6.432;2023-07-02T09:04:29;23.93;;;13.63;;
50225;SDS011;36113;50.742;6.432;2023-07-02T09:07:04;29.40;;;15.50;;
50225;SDS011;36113;50.742;6.432;2023-07-02T09:09:29;33.45;;;14.45;;
50225;SDS011;36113;50.742;6.432;2023-07-02T09:11:55;25.53;;;14.37;;
50225;SDS011;36113;50.742;6.432;2023-07-02T09:14:23;25.80;;;13.97;;
50225;SDS011;36113;50.742;6.432;2023-07-02T09:17:00;22.33;;;14.05;;
50225;SDS011;36113;50.742;6.432;2023-07-02T09:19:28;27.55;;;14.10;;
50225;SDS011;36113;50.742;6.432;2023-07-02T09:21:56;26.70;;;13.07;;
50225;SDS011;36113;50.742;6.432;2023-07-02T09:24:24;23.55;;;14.52;;
50225;SDS011;36113;50.742;6.432;2023-07-02T09:26:51;24.47;;;13.50;;
50225;SDS011;36113;50.742;6.432;2023-07-02T09:29:22;25.17;;;13.20;;
50225;SDS011;36113;50.742;6.432;2023-07-02T09:31:51;25.73;;;13.07;;
50225;SDS011;36113;50.742;6.432;2023-07-02T09:34:17;23.60;;;13.17;;
50225;SDS011;36113;50.742;6.432;2023-07-02T09:36:42;25.17;;;13.23;;
50225;SDS011;36113;50.742;6.432;2023-07-02T09:39:12;33.78;;;14.75;;
50225;SDS011;36113;50.742;6.432;2023-07-02T09:41:41;23.38;;;13.40;;
50225;SDS011;36113;50.742;6.432;2023-07-02T09:44:10;28.15;;;13.68;;
50225;SDS011;36113;50.742;6.432;2023-07-02T09:46:45;30.40;;;14.15;;
50225;SDS011;36113;50.742;6.432;2023-07-02T09:49:14;31.00;;;14.60;;
50225;SDS011;36113;50.742;6.432;2023-07-02T09:51:42;27.67;;;14.32;;
50225;SDS011;36113;50.742;6.432;2023-07-02T09:54:10;26.27;;;13.93;;
50225;SDS011;36113;50.742;6.432;2023-07-02T09:56:36;25.45;;;13.95;;
50225;SDS011;36113;50.742;6.432;2023-07-02T09:59:01;24.57;;;13.00;;
50225;SDS011;36113;50.742;6.432;2023-07-02T10:01:27;30.07;;;14.43;;
50225;SDS011;36113;50.742;6.432;2023-07-02T10:03:52;25.23;;;14.07;;
50225;SDS011;36113;50.742;6.432;2023-07-02T10:06:17;32.17;;;14.60;;
50225;SDS011;36113;50.742;6.432;2023-07-02T10:08:52;26.70;;;13.80;;
50225;SDS011;36113;50.742;6.432;2023-07-02T10:11:18;21.92;;;11.95;;
50225;SDS011;36113;50.742;6.432;2023-07-02T10:13:44;26.87;;;14.03;;
50225;SDS011;36113;50.742;6.432;2023-07-02T10:16:09;21.23;;;11.63;;
50225;SDS011;36113;50.742;6.432;2023-07-02T10:18:34;31.43;;;12.40;;
50225;SDS011;36113;50.742;6.432;2023-07-02T10:21:00;27.83;;;12.00;;
50225;SDS011;36113;50.742;6.432;2023-07-02T10:23:34;24.60;;;11.60;;
50225;SDS011;36113;50.742;6.432;2023-07-02T10:26:10;26.08;;;11.20;;
50225;SDS011;36113;50.742;6.432;2023-07-02T10:28:59;22.55;;;12.23;;
50225;SDS011;36113;50.742;6.432;2023-07-02T10:31:25;19.85;;;10.68;;
50225;SDS011;36113;50.742;6.432;2023-07-02T10:33:51;25.20;;;11.90;;
50225;SDS011;36113;50.742;6.432;2023-07-02T10:36:19;20.97;;;11.07;;
50225;SDS011;36113;50.742;6.432;2023-07-02T10:38:45;21.98;;;12.23;;
50225;SDS011;36113;50.742;6.432;2023-07-02T10:41:12;22.65;;;11.80;;
50225;SDS011;36113;50.742;6.432;2023-07-02T10:43:47;26.63;;;12.10;;
50225;SDS011;36113;50.742;6.432;2023-07-02T10:46:18;21.33;;;12.13;;
50225;SDS011;36113;50.742;6.432;2023-07-02T10:48:50;25.75;;;12.27;;
50225;SDS011;36113;50.742;6.432;2023-07-02T10:51:20;24.25;;;11.85;;
50225;SDS011;36113;50.742;6.432;2023-07-02T10:53:46;24.73;;;12.40;;
50225;SDS011;36113;50.742;6.432;2023-07-02T10:56:21;23.58;;;12.38;;
50225;SDS011;36113;50.742;6.432;2023-07-02T10:58:46;24.50;;;12.43;;
50225;SDS011;36113;50.742;6.432;2023-07-02T11:01:21;25.00;;;11.60;;
50225;SDS011;36113;50.742;6.432;2023-07-02T11:03:54;26.42;;;12.68;;
50225;SDS011;36113;50.742;6.432;2023-07-02T11:06:20;25.30;;;11.65;;
50225;SDS011;36113;50.742;6.432;2023-07-02T11:08:46;21.77;;;11.70;;
50225;SDS011;36113;50.742;6.432;2023-07-02T11:11:11;24.03;;;12.83;;
50225;SDS011;36113;50.742;6.432;2023-07-02T11:13:44;27.67;;;13.60;;
50225;SDS011;36113;50.742;6.432;2023-07-02T11:16:25;26.52;;;13.88;;
50225;SDS011;36113;50.742;6.432;2023-07-02T11:19:09;26.10;;;13.57;;
50225;SDS011;36113;50.742;6.432;2023-07-02T11:21:35;22.38;;;11.18;;
50225;SDS011;36113;50.742;6.432;2023-07-02T11:24:01;22.25;;;11.75;;
50225;SDS011;36113;50.742;6.432;2023-07-02T11:26:37;22.73;;;12.57;;
50225;SDS011;36113;50.742;6.432;2023-07-02T11:29:03;22.63;;;12.32;;
50225;SDS011;36113;50.742;6.432;2023-07-02T11:31:28;25.80;;;12.13;;
50225;SDS011;36113;50.742;6.432;2023-07-02T11:33:54;23.57;;;12.83;;
50225;SDS011;36113;50.742;6.432;2023-07-02T11:36:20;23.93;;;13.07;;
50225;SDS011;36113;50.742;6.432;2023-07-02T11:38:48;30.23;;;12.52;;
50225;SDS011;36113;50.742;6.432;2023-07-02T11:41:14;20.35;;;11.85;;
50225;SDS011;36113;50.742;6.432;2023-07-02T11:43:40;23.33;;;12.47;;
50225;SDS011;36113;50.742;6.432;2023-07-02T11:46:05;23.43;;;12.30;;
50225;SDS011;36113;50.742;6.432;2023-07-02T11:48:30;22.63;;;12.67;;
50225;SDS011;36113;50.742;6.432;2023-07-02T11:50:56;18.87;;;11.60;;
50225;SDS011;36113;50.742;6.432;2023-07-02T11:53:21;26.03;;;13.03;;
50225;SDS011;36113;50.742;6.432;2023-07-02T11:55:46;21.57;;;11.37;;
50225;SDS011;36113;50.742;6.432;2023-07-02T11:58:12;27.27;;;12.00;;
50225;SDS011;36113;50.742;6.432;2023-07-02T12:00:37;20.90;;;10.60;;
50225;SDS011;36113;50.742;6.432;2023-07-02T12:03:02;18.57;;;11.13;;
50225;SDS011;36113;50.742;6.432;2023-07-02T12:05:28;19.43;;;11.17;;
50225;SDS011;36113;50.742;6.432;2023-07-02T12:07:53;19.20;;;11.13;;
50225;SDS011;36113;50.742;6.432;2023-07-02T12:10:19;24.33;;;11.67;;
50225;SDS011;36113;50.742;6.432;2023-07-02T12:12:44;20.80;;;10.67;;
50225;SDS011;36113;50.742;6.432;2023-07-02T12:15:09;21.03;;;11.33;;
50225;SDS011;36113;50.742;6.432;2023-07-02T12:17:35;20.10;;;11.17;;
50225;SDS011;36113;50.742;6.432;2023-07-02T12:20:00;23.10;;;11.67;;
50225;SDS011;36113;50.742;6.432;2023-07-02T12:22:25;21.07;;;12.00;;
50225;SDS011;36113;50.742;6.432;2023-07-02T12:24:51;22.37;;;10.83;;
50225;SDS011;36113;50.742;6.432;2023-07-02T12:27:18;23.13;;;11.55;;
50225;SDS011;36113;50.742;6.432;2023-07-02T12:29:43;20.20;;;10.73;;
50225;SDS011;36113;50.742;6.432;2023-07-02T12:32:09;25.67;;;11.77;;
50225;SDS011;36113;50.742;6.432;2023-07-02T12:34:34;21.43;;;11.33;;
50225;SDS011;36113;50.742;6.432;2023-07-02T12:36:59;18.57;;;10.57;;
50225;SDS011;36113;50.742;6.432;2023-07-02T12:39:25;21.97;;;10.93;;
50225;SDS011;36113;50.742;6.432;2023-07-02T12:41:51;16.67;;;10.15;;
50225;SDS011;36113;50.742;6.432;2023-07-02T12:44:17;18.13;;;10.70;;
50225;SDS011;36113;50.742;6.432;2023-07-02T12:46:42;24.07;;;10.03;;
50225;SDS011;36113;50.742;6.432;2023-07-02T12:49:07;18.87;;;9.87;;
50225;SDS011;36113;50.742;6.432;2023-07-02T12:51:33;20.70;;;9.63;;
50225;SDS011;36113;50.742;6.432;2023-07-02T12:53:58;19.53;;;10.10;;
50225;SDS011;36113;50.742;6.432;2023-07-02T12:56:23;18.13;;;10.47;;
50225;SDS011;36113;50.742;6.432;2023-07-02T12:58:49;19.90;;;11.37;;
50225;SDS011;36113;50.742;6.432;2023-07-02T13:01:16;22.45;;;10.13;;
50225;SDS011;36113;50.742;6.432;2023-07-02T13:03:44;17.87;;;9.90;;
50225;SDS011;36113;50.742;6.432;2023-07-02T13:06:12;19.63;;;9.88;;
50225;SDS011;36113;50.742;6.432;2023-07-02T13:08:37;23.93;;;11.50;;
50225;SDS011;36113;50.742;6.432;2023-07-02T13:11:02;19.77;;;9.80;;
50225;SDS011;36113;50.742;6.432;2023-07-02T13:13:28;19.37;;;9.83;;
50225;SDS011;36113;50.742;6.432;2023-07-02T13:15:53;16.60;;;10.10;;
50225;SDS011;36113;50.742;6.432;2023-07-02T13:18:19;21.55;;;10.35;;
50225;SDS011;36113;50.742;6.432;2023-07-02T13:20:44;18.47;;;10.43;;
50225;SDS011;36113;50.742;6.432;2023-07-02T13:23:10;18.60;;;10.50;;
50225;SDS011;36113;50.742;6.432;2023-07-02T13:25:35;19.47;;;9.93;;
50225;SDS011;36113;50.742;6.432;2023-07-02T13:28:00;22.57;;;10.57;;
50225;SDS011;36113;50.742;6.432;2023-07-02T13:30:26;18.83;;;10.83;;
50225;SDS011;36113;50.742;6.432;2023-07-02T13:32:53;17.63;;;10.50;;
50225;SDS011;36113;50.742;6.432;2023-07-02T13:35:18;17.57;;;10.13;;
50225;SDS011;36113;50.742;6.432;2023-07-02T13:37:44;25.90;;;10.67;;
50225;SDS011;36113;50.742;6.432;2023-07-02T13:40:09;21.83;;;10.57;;
50225;SDS011;36113;50.742;6.432;2023-07-02T13:42:37;21.20;;;10.52;;
50225;SDS011;36113;50.742;6.432;2023-07-02T13:45:03;17.33;;;9.95;;
50225;SDS011;36113;50.742;6.432;2023-07-02T13:47:29;19.70;;;11.17;;
50225;SDS011;36113;50.742;6.432;2023-07-02T13:49:54;17.80;;;9.83;;
50225;SDS011;36113;50.742;6.432;2023-07-02T13:52:19;16.73;;;9.23;;
50225;SDS011;36113;50.742;6.432;2023-07-02T13:54:45;18.00;;;10.37;;
50225;SDS011;36113;50.742;6.432;2023-07-02T13:57:10;21.10;;;10.47;;
50225;SDS011;36113;50.742;6.432;2023-07-02T13:59:35;17.83;;;9.43;;
50225;SDS011;36113;50.742;6.432;2023-07-02T14:02:01;20.97;;;10.73;;
50225;SDS011;36113;50.742;6.432;2023-07-02T14:04:26;19.17;;;10.90;;
50225;SDS011;36113;50.742;6.432;2023-07-02T14:06:51;15.90;;;9.77;;
50225;SDS011;36113;50.742;6.432;2023-07-02T14:09:18;20.17;;;10.85;;
50225;SDS011;36113;50.742;6.432;2023-07-02T14:11:44;19.33;;;9.10;;
50225;SDS011;36113;50.742;6.432;2023-07-02T14:14:09;20.63;;;10.40;;
50225;SDS011;36113;50.742;6.432;2023-07-02T14:16:35;21.87;;;10.37;;
50225;SDS011;36113;50.742;6.432;2023-07-02T14:19:00;16.23;;;10.30;;
50225;SDS011;36113;50.742;6.432;2023-07-02T14:21:25;19.20;;;10.00;;
50225;SDS011;36113;50.742;6.432;2023-07-02T14:23:51;20.27;;;10.57;;